createdAt,value
2022-12-25T00:00:32.265Z,7.80
2022-12-25T00:03:01.089Z,7.80
2022-12-25T00:05:29.724Z,7.90
2022-12-25T00:07:58.269Z,7.90
2022-12-25T00:10:26.786Z,7.90
2022-12-25T00:12:55.300Z,8.00
2022-12-25T00:15:23.931Z,8.00
2022-12-25T00:17:54.019Z,8.00
2022-12-25T00:20:22.532Z,8.00
2022-12-25T00:22:51.075Z,8.10
2022-12-25T00:25:19.628Z,8.30
2022-12-25T00:27:48.170Z,8.10
2022-12-25T00:30:16.963Z,8.10
2022-12-25T00:32:45.500Z,8.10
2022-12-25T00:35:15.396Z,8.20
2022-12-25T00:37:43.939Z,8.20
2022-12-25T00:40:13.083Z,8.20
2022-12-25T00:42:41.638Z,8.20
2022-12-25T00:45:12.413Z,8.20
2022-12-25T00:47:41.032Z,8.20
2022-12-25T00:50:10.641Z,8.20
2022-12-25T00:52:40.815Z,8.20
2022-12-25T00:55:09.953Z,8.10
2022-12-25T00:57:38.429Z,8.10
2022-12-25T01:00:08.254Z,8.10
2022-12-25T01:02:37.068Z,8.10
2022-12-25T01:05:06.650Z,8.10
2022-12-25T01:07:35.234Z,8.20
2022-12-25T01:10:22.987Z,8.20
2022-12-25T01:12:52.322Z,8.20
2022-12-25T01:15:21.184Z,8.20
2022-12-25T01:22:45.995Z,8.30
2022-12-25T01:25:15.876Z,8.40
2022-12-25T01:27:44.365Z,8.40
2022-12-25T01:30:13.595Z,8.50
2022-12-25T01:32:42.227Z,8.50
2022-12-25T01:35:12.076Z,8.60
2022-12-25T01:37:40.639Z,8.60
2022-12-25T01:40:10.514Z,8.70
2022-12-25T01:42:40.427Z,8.70
2022-12-25T01:45:31.122Z,8.80
2022-12-25T01:48:03.584Z,8.80
2022-12-25T01:50:32.313Z,8.80
2022-12-25T01:53:01.090Z,8.80
2022-12-25T01:55:30.481Z,8.80
2022-12-25T01:58:00.475Z,8.80
2022-12-25T02:00:29.172Z,8.80
2022-12-25T02:02:58.467Z,8.80
2022-12-25T02:05:30.273Z,8.70
2022-12-25T02:08:02.851Z,8.70
2022-12-25T02:10:31.420Z,8.70
2022-12-25T02:13:02.216Z,8.70
2022-12-25T02:15:41.330Z,8.80
2022-12-25T02:18:18.121Z,8.80
2022-12-25T02:21:10.202Z,8.80
2022-12-25T02:24:08.043Z,8.80
2022-12-25T02:26:59.407Z,8.80
2022-12-25T02:29:37.768Z,8.80
2022-12-25T02:32:15.391Z,8.80
2022-12-25T02:34:50.104Z,8.80
2022-12-25T02:37:24.550Z,8.80
2022-12-25T02:39:59.607Z,8.80
2022-12-25T02:42:51.462Z,8.80
2022-12-25T02:45:43.941Z,8.80
2022-12-25T02:48:32.009Z,8.70
2022-12-25T02:51:22.031Z,8.70
2022-12-25T02:54:12.240Z,8.70
2022-12-25T02:57:00.695Z,8.60
2022-12-25T02:59:48.877Z,8.60
2022-12-25T03:02:37.214Z,8.50
2022-12-25T03:05:28.744Z,8.50
2022-12-25T03:07:59.826Z,8.50
2022-12-25T03:10:47.267Z,8.50
2022-12-25T03:13:19.892Z,8.50
2022-12-25T03:16:07.872Z,8.50
2022-12-25T03:18:37.925Z,8.50
2022-12-25T03:21:24.389Z,8.50
2022-12-25T03:24:16.555Z,8.60
2022-12-25T03:27:02.402Z,8.50
2022-12-25T03:29:53.056Z,8.60
2022-12-25T03:32:33.126Z,8.60
2022-12-25T03:35:24.211Z,8.60
2022-12-25T03:38:37.946Z,8.60
2022-12-25T03:41:32.184Z,8.60
2022-12-25T03:44:27.116Z,8.60
2022-12-25T03:47:19.390Z,8.50
2022-12-25T03:50:09.131Z,8.50
2022-12-25T03:52:58.401Z,8.50
2022-12-25T03:55:45.051Z,8.50
2022-12-25T03:58:36.500Z,8.50
2022-12-25T04:01:22.768Z,8.50
2022-12-25T04:04:09.029Z,8.50
2022-12-25T04:06:55.238Z,8.50
2022-12-25T04:09:42.979Z,8.50
2022-12-25T04:12:29.409Z,8.50
2022-12-25T04:15:15.330Z,8.50
2022-12-25T04:18:01.450Z,8.50
2022-12-25T04:20:47.378Z,8.50
2022-12-25T04:23:33.420Z,8.50
2022-12-25T04:26:20.650Z,8.50
2022-12-25T04:29:06.805Z,8.50
2022-12-25T04:31:52.923Z,8.60
2022-12-25T04:34:38.803Z,8.60
2022-12-25T04:37:07.537Z,8.60
2022-12-25T04:39:36.089Z,8.60
2022-12-25T04:42:06.092Z,8.60
2022-12-25T04:44:34.630Z,8.60
2022-12-25T04:47:09.159Z,8.60
2022-12-25T04:49:39.794Z,8.60
2022-12-25T04:52:08.573Z,8.60
2022-12-25T04:54:39.069Z,8.60
2022-12-25T04:57:09.153Z,8.70
2022-12-25T04:59:37.667Z,8.70
2022-12-25T05:02:06.247Z,8.70
2022-12-25T05:04:35.161Z,8.70
2022-12-25T05:07:03.729Z,8.70
2022-12-25T05:09:32.309Z,8.80
2022-12-25T05:12:00.794Z,8.80
2022-12-25T05:14:32.095Z,8.80
2022-12-25T05:17:00.570Z,8.80
2022-12-25T05:19:29.143Z,8.80
2022-12-25T05:21:57.759Z,8.80
2022-12-25T05:24:27.958Z,8.90
2022-12-25T05:26:56.478Z,8.90
2022-12-25T05:29:25.030Z,9.00
2022-12-25T05:31:54.887Z,9.10
2022-12-25T05:34:23.562Z,9.10
2022-12-25T05:36:52.115Z,9.20
2022-12-25T05:39:21.196Z,9.20
2022-12-25T05:41:49.737Z,9.20
2022-12-25T05:44:18.384Z,9.20
2022-12-25T05:46:47.027Z,9.20
2022-12-25T05:49:16.989Z,9.30
2022-12-25T05:51:48.278Z,9.30
2022-12-25T05:54:16.964Z,9.30
2022-12-25T05:56:45.517Z,9.40
2022-12-25T05:59:14.124Z,9.40
2022-12-25T06:01:42.794Z,9.40
2022-12-25T06:04:12.865Z,9.40
2022-12-25T06:06:43.231Z,9.50
2022-12-25T06:09:13.598Z,9.50
2022-12-25T06:11:42.601Z,9.50
2022-12-25T06:14:13.059Z,9.60
2022-12-25T06:16:41.821Z,9.60
2022-12-25T06:19:13.320Z,9.60
2022-12-25T06:21:43.259Z,9.60
2022-12-25T06:24:16.254Z,9.70
2022-12-25T06:26:49.689Z,9.70
2022-12-25T06:29:18.428Z,9.70
2022-12-25T06:31:47.040Z,9.60
2022-12-25T06:34:16.485Z,9.70
2022-12-25T06:36:46.370Z,9.70
2022-12-25T06:39:15.161Z,9.70
2022-12-25T06:41:43.818Z,9.70
2022-12-25T06:44:12.347Z,9.70
2022-12-25T06:46:41.146Z,9.80
2022-12-25T06:49:11.081Z,9.80
2022-12-25T06:51:39.719Z,9.80
2022-12-25T06:54:10.258Z,9.80
2022-12-25T06:56:39.141Z,9.80
2022-12-25T06:59:09.776Z,9.80
2022-12-25T07:01:45.776Z,9.80
2022-12-25T07:04:19.406Z,9.70
2022-12-25T07:06:48.033Z,9.70
2022-12-25T07:09:18.007Z,9.80
2022-12-25T07:11:46.635Z,9.70
2022-12-25T07:14:23.834Z,9.70
2022-12-25T07:16:53.188Z,9.80
2022-12-25T07:19:21.773Z,9.70
2022-12-25T07:21:50.335Z,9.80
2022-12-25T07:24:21.196Z,9.80
2022-12-25T07:26:50.400Z,9.80
2022-12-25T07:29:19.522Z,9.80
2022-12-25T07:31:48.553Z,9.80
2022-12-25T07:34:18.440Z,9.80
2022-12-25T07:36:47.134Z,9.80
2022-12-25T07:39:16.229Z,9.90
2022-12-25T07:41:46.505Z,10.10
2022-12-25T07:44:16.358Z,10.00
2022-12-25T07:46:44.989Z,9.90
2022-12-25T07:49:13.851Z,9.90
2022-12-25T07:51:42.528Z,9.90
2022-12-25T07:54:11.435Z,9.90
2022-12-25T07:56:40.040Z,9.90
2022-12-25T07:59:09.950Z,9.90
2022-12-25T08:01:38.808Z,9.90
2022-12-25T08:04:08.287Z,10.00
2022-12-25T08:06:38.142Z,10.10
2022-12-25T08:09:09.042Z,10.10
2022-12-25T08:11:38.221Z,10.10
2022-12-25T08:14:07.815Z,10.10
2022-12-25T08:16:39.678Z,10.10
2022-12-25T08:19:08.619Z,10.00
2022-12-25T08:21:37.279Z,10.10
2022-12-25T08:24:06.382Z,10.00
2022-12-25T08:26:35.009Z,10.10
2022-12-25T08:29:03.543Z,10.10
2022-12-25T08:31:33.414Z,10.00
2022-12-25T08:34:04.729Z,10.10
2022-12-25T08:36:33.259Z,10.10
2022-12-25T08:39:03.384Z,10.10
2022-12-25T08:41:32.659Z,10.10
2022-12-25T08:44:01.294Z,10.10
2022-12-25T08:46:30.113Z,10.10
2022-12-25T08:48:58.877Z,10.00
2022-12-25T08:51:28.765Z,10.10
2022-12-25T08:54:02.059Z,10.10
2022-12-25T08:56:30.588Z,10.10
2022-12-25T08:58:59.079Z,10.10
2022-12-25T09:01:27.750Z,10.10
2022-12-25T09:03:56.342Z,10.10
2022-12-25T09:06:24.900Z,10.10
2022-12-25T09:08:54.939Z,10.10
2022-12-25T09:11:24.477Z,10.10
2022-12-25T09:13:53.117Z,10.10
2022-12-25T09:16:23.498Z,10.10
2022-12-25T09:18:52.389Z,10.10
2022-12-25T09:21:21.009Z,10.10
2022-12-25T09:23:49.797Z,10.10
2022-12-25T09:26:20.679Z,10.10
2022-12-25T09:28:52.438Z,10.10
2022-12-25T09:31:22.505Z,10.10
2022-12-25T09:33:51.801Z,10.10
2022-12-25T09:36:23.477Z,10.10
2022-12-25T09:38:52.598Z,10.20
2022-12-25T09:41:30.868Z,10.20
2022-12-25T09:44:04.960Z,10.20
2022-12-25T09:46:43.668Z,10.30
2022-12-25T09:49:21.387Z,10.20
2022-12-25T09:51:54.358Z,10.20
2022-12-25T09:54:29.184Z,10.20
2022-12-25T09:56:59.024Z,10.20
2022-12-25T09:59:28.213Z,10.20
2022-12-25T10:02:05.433Z,10.20
2022-12-25T10:04:52.601Z,10.20
2022-12-25T10:07:32.565Z,10.20
2022-12-25T10:10:15.913Z,10.30
2022-12-25T10:12:56.706Z,10.30
2022-12-25T10:15:33.341Z,10.10
2022-12-25T10:18:21.566Z,10.10
2022-12-25T10:20:52.726Z,10.10
2022-12-25T10:23:25.967Z,10.10
2022-12-25T10:25:55.229Z,10.10
2022-12-25T10:28:31.121Z,10.10
2022-12-25T10:31:03.097Z,10.00
2022-12-25T10:33:31.920Z,10.00
2022-12-25T10:36:00.895Z,10.20
2022-12-25T10:38:29.525Z,10.00
2022-12-25T10:41:07.902Z,10.00
2022-12-25T10:43:42.263Z,10.00
2022-12-25T10:46:12.937Z,10.00
2022-12-25T10:48:44.642Z,10.00
2022-12-25T10:51:13.429Z,10.10
2022-12-25T10:53:44.186Z,10.00
2022-12-25T10:56:18.183Z,10.10
2022-12-25T10:58:48.078Z,10.10
2022-12-25T11:01:16.956Z,10.10
2022-12-25T11:03:48.433Z,10.00
2022-12-25T11:06:24.939Z,10.00
2022-12-25T11:08:56.679Z,10.10
2022-12-25T11:11:25.961Z,10.10
2022-12-25T11:13:58.791Z,10.10
2022-12-25T11:16:30.844Z,10.10
2022-12-25T11:19:00.741Z,10.20
2022-12-25T11:21:31.311Z,10.30
2022-12-25T11:24:02.003Z,10.30
2022-12-25T11:26:32.925Z,10.30
2022-12-25T11:29:04.116Z,10.30
2022-12-25T11:31:38.479Z,10.40
2022-12-25T11:34:11.387Z,10.50
2022-12-25T11:36:45.814Z,10.60
2022-12-25T11:39:23.630Z,10.70
2022-12-25T11:41:54.882Z,10.70
2022-12-25T11:44:36.582Z,10.80
2022-12-25T11:47:12.869Z,10.80
2022-12-25T11:49:49.846Z,10.80
2022-12-25T11:52:20.966Z,10.90
2022-12-25T11:54:56.662Z,10.90
2022-12-25T11:57:30.352Z,11.00
2022-12-25T12:00:06.774Z,11.00
2022-12-25T12:02:39.459Z,11.00
2022-12-25T12:05:14.828Z,11.00
2022-12-25T12:07:54.680Z,11.10
2022-12-25T12:10:32.249Z,11.10
2022-12-25T12:13:17.240Z,11.10
2022-12-25T12:15:49.143Z,11.20
2022-12-25T12:18:29.639Z,11.20
2022-12-25T12:21:03.620Z,11.30
2022-12-25T12:23:35.739Z,11.30
2022-12-25T12:26:05.425Z,11.30
2022-12-25T12:28:44.157Z,11.30
2022-12-25T12:31:14.933Z,11.30
2022-12-25T12:33:51.625Z,11.30
2022-12-25T12:36:34.393Z,11.30
2022-12-25T12:39:03.497Z,11.20
2022-12-25T12:41:47.490Z,11.20
2022-12-25T12:44:18.197Z,11.30
2022-12-25T12:46:56.240Z,11.30
2022-12-25T12:49:27.471Z,11.40
2022-12-25T12:52:07.813Z,11.40
2022-12-25T12:54:55.327Z,11.40
2022-12-25T12:57:26.867Z,11.40
2022-12-25T12:59:58.450Z,11.30
2022-12-25T13:03:01.760Z,11.30
2022-12-25T13:05:39.021Z,11.30
2022-12-25T13:08:21.668Z,11.30
2022-12-25T13:10:52.486Z,11.30
2022-12-25T13:13:25.532Z,11.30
2022-12-25T13:15:56.002Z,11.30
2022-12-25T13:18:25.982Z,11.30
2022-12-25T13:20:56.367Z,11.30
2022-12-25T13:23:27.893Z,11.30
2022-12-25T13:25:58.364Z,11.30
2022-12-25T13:28:28.747Z,11.30
2022-12-25T13:31:04.320Z,11.30
2022-12-25T13:33:34.788Z,11.40
2022-12-25T13:36:04.240Z,11.30
2022-12-25T13:38:32.960Z,11.30
2022-12-25T13:41:19.094Z,11.30
2022-12-25T13:43:49.741Z,11.30
2022-12-25T13:46:27.280Z,11.30
2022-12-25T13:49:02.181Z,11.30
2022-12-25T13:51:30.870Z,11.30
2022-12-25T13:54:11.477Z,11.30
2022-12-25T13:56:47.886Z,11.30
2022-12-25T13:59:18.705Z,11.30
2022-12-25T14:01:48.683Z,11.30
2022-12-25T14:04:21.736Z,11.30
2022-12-25T14:06:53.205Z,11.30
2022-12-25T14:09:22.266Z,11.30
2022-12-25T14:11:53.362Z,11.30
2022-12-25T14:14:25.726Z,11.40
2022-12-25T14:16:58.248Z,11.30
2022-12-25T14:19:30.522Z,11.40
2022-12-25T14:22:02.713Z,11.40
2022-12-25T14:24:35.003Z,11.40
2022-12-25T14:27:06.533Z,11.40
2022-12-25T14:29:38.440Z,11.40
2022-12-25T14:32:08.967Z,11.40
2022-12-25T14:34:39.112Z,11.40
2022-12-25T14:37:14.203Z,11.40
2022-12-25T14:39:45.061Z,11.50
2022-12-25T14:42:20.133Z,11.50
2022-12-25T14:44:59.519Z,11.50
2022-12-25T14:47:28.775Z,11.50
2022-12-25T14:49:58.671Z,11.60
2022-12-25T14:52:30.871Z,11.50
2022-12-25T14:55:02.206Z,11.60
2022-12-25T14:57:34.341Z,11.60
2022-12-25T15:00:09.451Z,11.60
2022-12-25T15:02:45.851Z,11.70
2022-12-25T15:05:28.543Z,11.70
2022-12-25T15:08:02.597Z,11.70
2022-12-25T15:10:59.799Z,11.60
2022-12-25T15:13:20.382Z,11.70
2022-12-25T15:15:59.243Z,11.70
2022-12-25T15:18:32.531Z,11.70
2022-12-25T15:21:02.469Z,11.70
2022-12-25T15:23:31.181Z,11.70
2022-12-25T15:25:59.748Z,11.70
2022-12-25T15:28:28.293Z,11.70
2022-12-25T15:30:57.162Z,11.70
2022-12-25T15:33:25.711Z,11.80
2022-12-25T15:35:54.303Z,11.80
2022-12-25T15:38:24.620Z,11.80
2022-12-25T15:40:53.196Z,11.80
2022-12-25T15:43:40.019Z,11.80
2022-12-25T15:46:10.422Z,11.80
2022-12-25T15:48:39.046Z,11.80
2022-12-25T15:51:07.569Z,11.70
2022-12-25T15:53:37.485Z,11.70
2022-12-25T15:56:06.674Z,11.90
2022-12-25T15:58:35.141Z,11.90
2022-12-25T16:01:03.674Z,11.90
2022-12-25T16:03:32.178Z,11.90
2022-12-25T16:06:00.885Z,11.90
2022-12-25T16:08:29.435Z,11.90
2022-12-25T16:10:59.325Z,11.90
2022-12-25T16:13:27.893Z,11.90
2022-12-25T16:15:56.457Z,11.90
2022-12-25T16:18:25.049Z,11.90
2022-12-25T16:20:55.278Z,11.90
2022-12-25T16:23:24.047Z,11.90
2022-12-25T16:25:52.634Z,11.80
2022-12-25T16:28:22.471Z,11.80
2022-12-25T16:30:51.262Z,11.80
2022-12-25T16:33:19.825Z,11.80
2022-12-25T16:35:48.511Z,11.80
2022-12-25T16:38:17.064Z,11.80
2022-12-25T16:40:46.327Z,11.80
2022-12-25T16:43:21.913Z,11.80
2022-12-25T16:45:53.902Z,11.90
2022-12-25T16:48:22.492Z,11.80
2022-12-25T16:50:50.977Z,11.70
2022-12-25T16:53:19.522Z,11.70
2022-12-25T16:55:48.022Z,11.70
2022-12-25T16:58:16.697Z,11.70
2022-12-25T17:00:49.238Z,11.80
2022-12-25T17:03:19.608Z,11.80
2022-12-25T17:05:48.188Z,11.80
2022-12-25T17:08:16.791Z,11.70
2022-12-25T17:10:45.395Z,11.80
2022-12-25T17:13:13.877Z,11.70
2022-12-25T17:15:48.370Z,11.70
2022-12-25T17:18:22.028Z,11.70
2022-12-25T17:20:51.855Z,11.70
2022-12-25T17:23:21.042Z,11.70
2022-12-25T17:25:49.641Z,11.70
2022-12-25T17:28:18.239Z,11.80
2022-12-25T17:30:46.784Z,11.80
2022-12-25T17:33:15.274Z,11.80
2022-12-25T17:35:45.228Z,11.80
2022-12-25T17:38:14.159Z,11.90
2022-12-25T17:40:42.751Z,11.90
2022-12-25T17:43:15.791Z,11.90
2022-12-25T17:45:49.053Z,11.90
2022-12-25T17:48:17.856Z,12.00
2022-12-25T17:50:48.197Z,12.00
2022-12-25T17:53:16.775Z,12.00
2022-12-25T17:55:45.387Z,12.10
2022-12-25T17:58:13.904Z,12.10
2022-12-25T18:00:42.541Z,12.20
2022-12-25T18:03:12.223Z,12.30
2022-12-25T18:05:41.810Z,12.30
2022-12-25T18:08:11.827Z,12.30
2022-12-25T18:10:42.650Z,12.40
2022-12-25T18:13:12.168Z,12.40
2022-12-25T18:15:41.481Z,12.50
2022-12-25T18:18:10.362Z,12.50
2022-12-25T18:20:40.440Z,12.50
2022-12-25T18:23:10.945Z,12.60
2022-12-25T18:25:42.731Z,12.60
2022-12-25T18:28:11.784Z,12.60
2022-12-25T18:30:41.056Z,12.70
2022-12-25T18:33:10.168Z,12.70
2022-12-25T18:35:40.211Z,12.80
2022-12-25T18:38:11.042Z,12.80
2022-12-25T18:40:43.190Z,12.80
2022-12-25T18:43:12.693Z,12.80
2022-12-25T18:45:42.140Z,12.80
2022-12-25T18:48:11.497Z,12.80
2022-12-25T18:50:41.433Z,12.80
2022-12-25T18:53:09.970Z,12.80
2022-12-25T18:55:42.755Z,12.80
2022-12-25T18:58:11.393Z,12.80
2022-12-25T19:00:40.022Z,12.80
2022-12-25T19:03:09.585Z,12.90
2022-12-25T19:05:40.287Z,12.90
2022-12-25T19:08:10.189Z,12.90
2022-12-25T19:10:39.881Z,12.90
2022-12-25T19:13:10.173Z,12.90
2022-12-25T19:15:42.355Z,12.90
2022-12-25T19:18:11.006Z,12.90
2022-12-25T19:20:40.974Z,12.90
2022-12-25T19:23:09.878Z,12.90
2022-12-25T19:25:40.548Z,13.00
2022-12-25T19:28:10.484Z,12.90
2022-12-25T19:30:39.118Z,12.90
2022-12-25T19:33:11.120Z,12.80
2022-12-25T19:35:44.305Z,12.80
2022-12-25T19:38:12.837Z,12.80
2022-12-25T19:41:00.123Z,12.80
2022-12-25T19:43:32.251Z,12.80
2022-12-25T19:46:03.177Z,12.70
2022-12-25T19:48:33.255Z,12.70
2022-12-25T19:51:02.344Z,12.70
2022-12-25T19:53:31.373Z,12.70
2022-12-25T19:56:02.838Z,12.70
2022-12-25T19:58:32.801Z,12.70
2022-12-25T20:01:05.104Z,12.70
2022-12-25T20:03:36.502Z,12.70
2022-12-25T20:06:13.542Z,12.70
2022-12-25T20:08:42.246Z,12.70
2022-12-25T20:11:10.761Z,12.70
2022-12-25T20:13:40.624Z,12.70
2022-12-25T20:16:10.161Z,12.60
2022-12-25T20:18:39.179Z,12.60
2022-12-25T20:21:09.693Z,12.60
2022-12-25T20:23:38.586Z,12.60
2022-12-25T20:26:07.403Z,12.60
2022-12-25T20:28:37.633Z,12.50
2022-12-25T20:31:09.517Z,12.50
2022-12-25T20:33:38.720Z,12.40
2022-12-25T20:36:08.383Z,12.30
2022-12-25T20:38:37.866Z,12.30
2022-12-25T20:43:58.047Z,12.20
2022-12-25T20:46:28.350Z,12.20
2022-12-25T20:48:56.993Z,12.10
2022-12-25T20:51:27.310Z,12.10
2022-12-25T20:53:56.788Z,12.00
2022-12-25T20:56:27.137Z,12.10
2022-12-25T20:58:56.392Z,12.10
2022-12-25T21:01:25.526Z,12.10
2022-12-25T21:03:56.409Z,12.00
2022-12-25T21:06:25.532Z,12.00
2022-12-25T21:08:54.115Z,12.00
2022-12-25T21:11:22.855Z,12.00
2022-12-25T21:13:51.535Z,12.00
2022-12-25T21:16:22.998Z,12.00
2022-12-25T21:18:53.409Z,11.90
2022-12-25T21:21:23.500Z,11.90
2022-12-25T21:23:52.054Z,11.90
2022-12-25T21:26:22.663Z,11.90
2022-12-25T21:28:53.516Z,11.90
2022-12-25T21:31:22.569Z,11.90
2022-12-25T21:33:54.236Z,11.90
2022-12-25T21:36:27.741Z,11.90
2022-12-25T21:38:58.325Z,11.90
2022-12-25T21:41:28.380Z,12.00
2022-12-25T21:43:57.370Z,12.00
2022-12-25T21:46:26.744Z,12.10
2022-12-25T21:48:55.950Z,12.00
2022-12-25T21:51:45.254Z,12.00
2022-12-25T21:54:14.876Z,12.00
2022-12-25T21:56:45.695Z,12.00
2022-12-25T21:59:16.136Z,12.00
2022-12-25T22:01:45.656Z,12.00
2022-12-25T22:04:16.285Z,12.00
2022-12-25T22:07:03.792Z,12.00
2022-12-25T22:09:32.741Z,12.00
2022-12-25T22:12:18.849Z,11.90
2022-12-25T22:14:57.930Z,11.90
2022-12-25T22:17:46.141Z,11.90
2022-12-25T22:20:17.411Z,11.90
2022-12-25T22:22:47.636Z,11.80
2022-12-25T22:25:17.185Z,11.80
2022-12-25T22:27:47.423Z,11.80
2022-12-25T22:30:18.237Z,11.80
2022-12-25T22:32:47.256Z,11.80
2022-12-25T22:35:17.770Z,11.90
2022-12-25T22:37:48.228Z,11.90
2022-12-25T22:40:18.390Z,12.00
2022-12-25T22:42:47.450Z,12.00
2022-12-25T22:45:16.492Z,12.10
2022-12-25T22:47:45.013Z,12.10
2022-12-25T22:50:15.630Z,12.10
2022-12-25T22:52:45.695Z,12.20
2022-12-25T22:55:18.616Z,12.20
2022-12-25T22:57:48.907Z,12.30
2022-12-25T23:00:17.601Z,12.30
2022-12-25T23:02:46.326Z,12.40
2022-12-25T23:05:15.232Z,12.40
2022-12-25T23:07:43.769Z,12.40
2022-12-25T23:10:12.467Z,12.50
2022-12-25T23:13:00.122Z,12.60
2022-12-25T23:15:28.898Z,12.70
2022-12-25T23:18:15.129Z,12.70
2022-12-25T23:21:01.373Z,12.70
2022-12-25T23:23:47.316Z,12.70
2022-12-25T23:26:19.236Z,12.70
2022-12-25T23:29:06.792Z,12.70
2022-12-25T23:31:39.505Z,12.70
2022-12-25T23:34:09.417Z,12.70
2022-12-25T23:36:37.977Z,12.70
2022-12-25T23:39:10.491Z,12.70
2022-12-25T23:41:40.576Z,12.70
2022-12-25T23:44:11.422Z,12.70
2022-12-25T23:46:40.592Z,12.70
2022-12-25T23:49:09.865Z,12.70
2022-12-25T23:51:43.031Z,12.70
2022-12-25T23:54:13.414Z,12.60
2022-12-25T23:56:42.665Z,12.60
2022-12-25T23:59:14.212Z,12.60
